createdAt,value
2023-01-25T00:00:11.282Z,19.80
2023-01-25T00:02:59.582Z,20.20
2023-01-25T00:05:32.199Z,20.90
2023-01-25T00:08:00.435Z,21.00
2023-01-25T00:10:51.861Z,20.70
2023-01-25T00:13:20.264Z,19.30
2023-01-25T00:15:48.246Z,20.90
2023-01-25T00:18:34.995Z,21.70
2023-01-25T00:21:32.312Z,25.60
2023-01-25T00:24:06.135Z,21.60
2023-01-25T00:26:35.355Z,19.20
2023-01-25T00:29:04.294Z,20.10
2023-01-25T00:31:35.316Z,19.30
2023-01-25T00:34:25.445Z,20.40
2023-01-25T00:37:01.636Z,18.40
2023-01-25T00:39:29.985Z,21.60
2023-01-25T00:41:58.075Z,23.10
2023-01-25T00:44:26.624Z,20.80
2023-01-25T00:46:54.825Z,19.50
2023-01-25T00:49:25.396Z,20.20
2023-01-25T00:51:56.169Z,19.00
2023-01-25T00:54:24.419Z,23.90
2023-01-25T00:56:54.484Z,19.80
2023-01-25T00:59:24.362Z,19.80
2023-01-25T01:01:54.346Z,17.80
2023-01-25T01:04:25.919Z,20.80
2023-01-25T01:06:54.483Z,19.10
2023-01-25T01:09:23.841Z,18.90
2023-01-25T01:11:54.102Z,18.80
2023-01-25T01:14:23.547Z,17.90
2023-01-25T01:16:51.807Z,17.40
2023-01-25T01:19:20.502Z,18.70
2023-01-25T01:21:48.778Z,16.20
2023-01-25T01:24:18.104Z,19.10
2023-01-25T01:26:46.405Z,18.40
2023-01-25T01:29:16.682Z,20.40
2023-01-25T01:31:45.031Z,18.90
2023-01-25T01:34:36.081Z,18.10
2023-01-25T01:37:04.398Z,20.00
2023-01-25T01:39:32.454Z,19.10
2023-01-25T01:42:01.078Z,19.40
2023-01-25T01:44:46.816Z,20.80
2023-01-25T01:47:29.386Z,20.50
2023-01-25T01:50:17.110Z,21.40
2023-01-25T01:52:45.896Z,20.40
2023-01-25T01:55:19.492Z,20.60
2023-01-25T01:57:52.087Z,21.90
2023-01-25T02:00:28.292Z,21.20
2023-01-25T02:02:58.084Z,22.70
2023-01-25T02:06:02.937Z,21.80
2023-01-25T02:08:37.001Z,21.30
2023-01-25T02:11:05.405Z,22.30
2023-01-25T02:13:35.897Z,21.90
2023-01-25T02:16:05.168Z,21.70
2023-01-25T02:18:33.500Z,25.90
2023-01-25T02:21:02.420Z,20.50
2023-01-25T02:23:54.575Z,19.20
2023-01-25T02:26:23.571Z,23.20
2023-01-25T02:29:02.382Z,21.30
2023-01-25T02:31:34.825Z,23.60
2023-01-25T02:34:03.602Z,20.60
2023-01-25T02:36:34.202Z,22.20
2023-01-25T02:39:24.337Z,20.90
2023-01-25T02:42:11.389Z,21.20
2023-01-25T02:44:41.223Z,21.50
2023-01-25T02:47:09.620Z,23.90
2023-01-25T02:49:38.505Z,22.60
2023-01-25T02:52:09.647Z,22.60
2023-01-25T02:54:38.021Z,22.10
2023-01-25T02:57:08.143Z,22.90
2023-01-25T02:59:43.317Z,21.50
2023-01-25T03:02:11.863Z,22.60
2023-01-25T03:04:40.139Z,24.00
2023-01-25T03:07:09.352Z,27.70
2023-01-25T03:09:37.522Z,25.40
2023-01-25T03:12:06.406Z,24.10
2023-01-25T03:14:39.735Z,25.60
2023-01-25T03:17:11.028Z,28.00
2023-01-25T03:19:39.144Z,26.90
2023-01-25T03:22:07.489Z,22.60
2023-01-25T03:24:36.190Z,19.70
2023-01-25T03:27:11.118Z,21.70
2023-01-25T03:29:45.960Z,23.60
2023-01-25T03:32:17.683Z,21.50
2023-01-25T03:34:46.046Z,23.50
2023-01-25T03:37:15.203Z,23.90
2023-01-25T03:39:44.008Z,24.10
2023-01-25T03:42:12.224Z,19.60
2023-01-25T03:44:41.049Z,23.20
2023-01-25T03:47:09.365Z,20.50
2023-01-25T03:49:37.785Z,20.50
2023-01-25T03:52:10.183Z,22.90
2023-01-25T03:54:40.132Z,20.50
2023-01-25T03:57:09.488Z,23.80
2023-01-25T03:59:51.066Z,21.80
2023-01-25T04:02:19.312Z,24.10
2023-01-25T04:04:47.471Z,24.40
2023-01-25T04:07:40.574Z,26.10
2023-01-25T04:10:10.416Z,22.70
2023-01-25T04:12:41.505Z,24.10
2023-01-25T04:15:10.948Z,20.90
2023-01-25T04:17:59.911Z,26.70
2023-01-25T04:20:29.649Z,23.20
2023-01-25T04:22:58.216Z,27.50
2023-01-25T04:25:31.180Z,23.70
2023-01-25T04:27:59.578Z,26.90
2023-01-25T04:30:27.683Z,28.40
2023-01-25T04:32:56.758Z,26.90
2023-01-25T04:35:28.068Z,28.30
2023-01-25T04:37:58.753Z,28.10
2023-01-25T04:40:51.432Z,28.20
2023-01-25T04:43:21.046Z,29.90
2023-01-25T04:45:50.483Z,29.30
2023-01-25T04:48:23.665Z,27.90
2023-01-25T04:50:56.734Z,29.90
2023-01-25T04:53:44.664Z,30.10
2023-01-25T04:56:13.258Z,33.10
2023-01-25T04:59:07.822Z,33.00
2023-01-25T05:01:36.336Z,32.30
2023-01-25T05:04:06.667Z,33.50
2023-01-25T05:06:39.631Z,33.10
2023-01-25T05:09:09.694Z,31.40
2023-01-25T05:11:38.248Z,36.20
2023-01-25T05:14:14.503Z,29.50
2023-01-25T05:19:35.539Z,34.50
2023-01-25T05:22:25.397Z,34.00
2023-01-25T05:24:54.537Z,37.50
2023-01-25T05:27:23.423Z,37.00
2023-01-25T05:29:55.016Z,33.40
2023-01-25T05:33:01.951Z,42.10
2023-01-25T05:35:30.523Z,33.20
2023-01-25T05:37:59.665Z,31.80
2023-01-25T05:40:28.131Z,34.90
2023-01-25T05:43:00.092Z,32.90
2023-01-25T05:45:30.567Z,33.90
2023-01-25T05:47:59.573Z,30.60
2023-01-25T05:50:28.115Z,36.50
2023-01-25T05:53:02.438Z,29.80
2023-01-25T05:55:31.065Z,32.20
2023-01-25T05:58:07.729Z,36.30
2023-01-25T06:00:35.909Z,38.40
2023-01-25T06:03:04.437Z,33.30
2023-01-25T06:05:35.932Z,31.90
2023-01-25T06:08:04.327Z,33.70
2023-01-25T06:10:51.413Z,38.20
2023-01-25T06:13:22.382Z,33.60
2023-01-25T06:15:57.738Z,33.90
2023-01-25T06:18:49.315Z,33.70
2023-01-25T06:21:42.124Z,28.50
2023-01-25T06:24:10.872Z,33.50
2023-01-25T06:26:39.088Z,32.50
2023-01-25T06:29:07.215Z,33.80
2023-01-25T06:31:58.576Z,33.10
2023-01-25T06:34:46.401Z,37.40
2023-01-25T06:37:23.167Z,34.30
2023-01-25T06:40:11.215Z,36.10
2023-01-25T06:42:44.396Z,41.70
2023-01-25T06:45:17.094Z,33.50
2023-01-25T06:47:46.968Z,35.10
2023-01-25T06:50:15.461Z,31.70
2023-01-25T06:52:43.503Z,29.20
2023-01-25T06:55:14.171Z,27.80
2023-01-25T06:57:49.804Z,31.90
2023-01-25T07:00:18.833Z,26.40
2023-01-25T07:03:05.891Z,33.40
2023-01-25T07:05:34.388Z,28.40
2023-01-25T07:08:22.788Z,26.30
2023-01-25T07:10:58.887Z,25.80
2023-01-25T07:13:28.619Z,30.20
2023-01-25T07:15:59.721Z,33.90
2023-01-25T07:18:47.185Z,30.00
2023-01-25T07:21:18.809Z,31.60
2023-01-25T07:23:47.466Z,31.90
2023-01-25T07:26:24.744Z,31.50
2023-01-25T07:28:53.770Z,29.70
2023-01-25T07:31:22.801Z,27.20
2023-01-25T07:33:53.315Z,30.70
2023-01-25T07:36:22.401Z,27.10
2023-01-25T07:38:57.011Z,30.10
2023-01-25T07:41:26.085Z,26.30
2023-01-25T07:43:54.712Z,22.50
2023-01-25T07:46:39.795Z,21.60
2023-01-25T07:49:07.900Z,22.80
2023-01-25T07:51:36.005Z,24.10
2023-01-25T07:54:23.240Z,28.20
2023-01-25T07:56:51.307Z,25.50
2023-01-25T07:59:19.340Z,21.20
2023-01-25T08:01:47.668Z,26.50
2023-01-25T08:04:15.689Z,24.40
2023-01-25T08:06:46.483Z,23.70
2023-01-25T08:09:22.492Z,24.30
2023-01-25T08:11:50.706Z,19.90
2023-01-25T08:14:18.770Z,24.30
2023-01-25T08:16:47.077Z,19.30
2023-01-25T08:19:33.716Z,23.40
2023-01-25T08:22:02.258Z,21.00
2023-01-25T08:24:30.660Z,23.40
2023-01-25T08:27:01.043Z,23.60
2023-01-25T08:29:29.731Z,25.40
2023-01-25T08:31:57.887Z,22.80
2023-01-25T08:34:25.976Z,22.10
2023-01-25T08:36:54.154Z,23.00
2023-01-25T08:39:22.418Z,25.40
2023-01-25T08:41:50.477Z,25.40
2023-01-25T08:44:24.315Z,24.70
2023-01-25T08:46:57.469Z,22.70
2023-01-25T08:49:27.520Z,21.10
2023-01-25T08:51:55.657Z,24.10
2023-01-25T08:54:24.830Z,28.40
2023-01-25T08:56:53.282Z,26.40
2023-01-25T08:59:44.841Z,27.00
2023-01-25T09:02:13.992Z,26.40
2023-01-25T09:04:42.215Z,26.50
2023-01-25T09:07:11.006Z,30.90
2023-01-25T09:09:44.602Z,27.60
2023-01-25T09:12:12.768Z,26.40
2023-01-25T09:14:40.788Z,25.70
2023-01-25T09:17:10.205Z,25.10
2023-01-25T09:19:38.465Z,27.60
2023-01-25T09:22:06.563Z,22.30
2023-01-25T09:24:36.993Z,24.60
2023-01-25T09:27:30.747Z,30.50
2023-01-25T09:30:16.614Z,27.20
2023-01-25T09:32:50.858Z,26.40
2023-01-25T09:35:19.347Z,27.90
2023-01-25T09:37:51.053Z,27.60
2023-01-25T09:40:22.549Z,28.90
2023-01-25T09:43:27.103Z,27.90
2023-01-25T09:46:26.572Z,29.20
2023-01-25T09:49:26.995Z,27.10
2023-01-25T09:52:27.376Z,27.40
2023-01-25T09:54:55.464Z,26.20
2023-01-25T09:57:26.523Z,26.70
2023-01-25T09:59:55.395Z,31.40
2023-01-25T10:02:34.931Z,30.80
2023-01-25T10:05:31.287Z,27.20
2023-01-25T10:08:16.340Z,30.30
2023-01-25T10:10:47.301Z,28.30
2023-01-25T10:13:19.427Z,28.80
2023-01-25T10:15:56.000Z,28.50
2023-01-25T10:18:33.684Z,31.60
2023-01-25T10:21:13.337Z,36.60
2023-01-25T10:23:56.555Z,33.60
2023-01-25T10:26:33.344Z,33.40
2023-01-25T10:29:04.988Z,29.80
2023-01-25T10:31:50.790Z,30.60
2023-01-25T10:34:31.486Z,31.90
2023-01-25T10:37:11.846Z,28.50
2023-01-25T10:39:57.520Z,29.00
2023-01-25T10:42:29.882Z,32.00
2023-01-25T10:47:37.399Z,31.10
2023-01-25T10:50:06.035Z,40.00
2023-01-25T10:52:37.802Z,39.00
2023-01-25T10:55:17.815Z,34.10
2023-01-25T10:57:53.581Z,37.00
2023-01-25T11:00:30.681Z,41.40
2023-01-25T11:02:59.156Z,42.20
2023-01-25T11:05:35.800Z,40.00
2023-01-25T11:08:25.784Z,42.10
2023-01-25T11:10:55.683Z,41.90
2023-01-25T11:13:29.813Z,43.90
2023-01-25T11:16:01.922Z,45.60
2023-01-25T11:18:33.964Z,56.20
2023-01-25T11:21:06.722Z,43.20
2023-01-25T11:23:34.986Z,45.20
2023-01-25T11:26:15.722Z,49.30
2023-01-25T11:28:45.662Z,52.70
2023-01-25T11:31:20.434Z,50.90
2023-01-25T11:33:49.002Z,54.10
2023-01-25T11:36:22.640Z,54.00
2023-01-25T11:39:07.124Z,65.60
2023-01-25T11:42:12.601Z,65.00
2023-01-25T11:45:09.131Z,63.70
2023-01-25T11:47:53.056Z,65.40
2023-01-25T11:50:39.283Z,65.90
2023-01-25T11:53:29.247Z,66.10
2023-01-25T11:56:26.061Z,71.80
2023-01-25T11:59:37.811Z,70.20
2023-01-25T12:03:03.691Z,72.60
2023-01-25T12:05:57.090Z,67.50
2023-01-25T12:08:34.959Z,65.00
2023-01-25T12:11:12.177Z,69.10
2023-01-25T12:14:08.168Z,70.20
2023-01-25T12:17:01.952Z,68.20
2023-01-25T12:19:57.662Z,63.60
2023-01-25T12:22:45.511Z,68.00
2023-01-25T12:25:22.776Z,67.60
2023-01-25T12:28:19.698Z,64.60
2023-01-25T12:31:20.196Z,69.20
2023-01-25T12:34:03.584Z,66.40
2023-01-25T12:36:38.409Z,66.70
2023-01-25T12:39:12.726Z,65.90
2023-01-25T12:42:00.301Z,59.40
2023-01-25T12:44:37.479Z,62.00
2023-01-25T12:47:22.475Z,67.80
2023-01-25T12:50:15.192Z,64.50
2023-01-25T12:53:15.504Z,60.40
2023-01-25T12:55:44.762Z,63.00
2023-01-25T12:58:16.412Z,62.10
2023-01-25T13:00:55.581Z,58.60
2023-01-25T13:03:41.590Z,58.60
2023-01-25T13:06:25.253Z,54.60
2023-01-25T13:08:56.403Z,50.90
2023-01-25T13:11:32.345Z,55.30
2023-01-25T13:14:31.385Z,51.50
2023-01-25T13:17:28.003Z,51.00
2023-01-25T13:19:56.263Z,50.70
2023-01-25T13:23:09.894Z,56.40
2023-01-25T13:25:51.885Z,53.20
2023-01-25T13:28:41.157Z,51.50
2023-01-25T13:31:09.674Z,49.60
2023-01-25T13:33:37.980Z,52.90
2023-01-25T13:36:37.520Z,50.50
2023-01-25T13:39:24.545Z,46.30
2023-01-25T13:42:03.558Z,48.40
2023-01-25T13:44:34.525Z,47.60
2023-01-25T13:47:05.843Z,46.10
2023-01-25T13:49:42.964Z,42.80
2023-01-25T13:52:19.675Z,44.30
2023-01-25T13:54:49.474Z,46.10
2023-01-25T14:00:14.954Z,46.30
2023-01-25T14:02:47.313Z,51.20
2023-01-25T14:05:25.766Z,41.90
2023-01-25T14:07:57.385Z,40.10
2023-01-25T14:10:28.001Z,42.20
2023-01-25T14:13:00.719Z,41.60
2023-01-25T14:15:31.118Z,40.10
2023-01-25T14:18:19.272Z,45.50
2023-01-25T14:20:50.671Z,43.40
2023-01-25T14:23:30.244Z,44.00
2023-01-25T14:25:59.327Z,43.80
2023-01-25T14:28:29.392Z,46.80
2023-01-25T14:31:01.579Z,45.30
2023-01-25T14:33:33.017Z,44.60
2023-01-25T14:36:24.378Z,48.20
2023-01-25T14:38:54.757Z,49.30
2023-01-25T14:41:36.320Z,43.80
2023-01-25T14:44:10.680Z,47.40
2023-01-25T14:46:40.560Z,46.60
2023-01-25T14:49:26.301Z,49.20
2023-01-25T14:52:02.482Z,47.00
2023-01-25T14:54:33.111Z,48.00
2023-01-25T14:57:04.388Z,51.90
2023-01-25T14:59:37.181Z,50.00
2023-01-25T15:02:46.113Z,49.10
2023-01-25T15:05:17.561Z,51.10
2023-01-25T15:07:51.357Z,51.30
2023-01-25T15:10:24.189Z,47.50
2023-01-25T15:13:15.715Z,57.20
2023-01-25T15:15:59.194Z,70.80
2023-01-25T15:19:00.005Z,63.10
2023-01-25T15:21:30.725Z,59.90
2023-01-25T15:24:06.932Z,55.70
2023-01-25T15:26:36.339Z,62.20
2023-01-25T15:29:20.729Z,55.80
2023-01-25T15:31:50.955Z,56.30
2023-01-25T15:34:25.332Z,59.60
2023-01-25T15:36:53.461Z,58.80
2023-01-25T15:39:21.889Z,52.40
2023-01-25T15:41:49.993Z,55.00
2023-01-25T15:44:20.372Z,54.80
2023-01-25T15:46:51.597Z,59.50
2023-01-25T15:49:28.043Z,57.00
2023-01-25T15:51:56.979Z,57.90
2023-01-25T15:54:25.220Z,55.70
2023-01-25T15:56:57.609Z,57.30
2023-01-25T16:01:55.334Z,69.60
2023-01-25T16:04:25.319Z,81.80
2023-01-25T16:06:55.024Z,62.00
2023-01-25T16:09:27.265Z,66.70
2023-01-25T16:27:41.055Z,74.40
2023-01-25T16:30:18.616Z,55.00
2023-01-25T16:32:46.947Z,60.60
2023-01-25T16:35:15.086Z,59.80
2023-01-25T16:37:43.346Z,69.40
2023-01-25T16:40:23.194Z,65.10
2023-01-25T16:42:51.757Z,65.20
2023-01-25T16:45:19.941Z,59.00
2023-01-25T16:47:48.304Z,60.70
2023-01-25T16:50:20.023Z,67.70
2023-01-25T16:52:51.366Z,68.40
2023-01-25T16:55:19.592Z,65.30
2023-01-25T16:57:51.241Z,73.00
2023-01-25T17:00:20.152Z,74.80
2023-01-25T17:02:58.789Z,74.10
2023-01-25T17:05:32.747Z,77.90
2023-01-25T17:08:01.182Z,80.80
2023-01-25T17:10:34.832Z,83.30
2023-01-25T17:13:03.442Z,85.60
2023-01-25T17:15:33.720Z,75.00
2023-01-25T17:18:02.253Z,61.70
2023-01-25T17:20:30.399Z,72.00
2023-01-25T17:22:58.494Z,65.10
2023-01-25T17:25:26.807Z,76.20
2023-01-25T17:27:54.908Z,68.20
2023-01-25T17:30:23.052Z,80.50
2023-01-25T17:32:51.195Z,79.40
2023-01-25T17:35:19.447Z,90.20
2023-01-25T17:37:47.569Z,88.90
2023-01-25T17:40:15.956Z,86.60
2023-01-25T17:42:44.475Z,116.20
2023-01-25T17:45:12.734Z,82.10
2023-01-25T17:47:41.016Z,66.90
2023-01-25T17:50:10.283Z,104.60
2023-01-25T17:52:39.011Z,90.50
2023-01-25T17:55:07.628Z,100.70
2023-01-25T17:57:37.313Z,113.50
2023-01-25T18:00:06.619Z,128.40
2023-01-25T18:02:45.433Z,137.00
2023-01-25T18:05:15.751Z,98.00
2023-01-25T18:07:45.293Z,89.50
2023-01-25T18:10:13.989Z,99.90
2023-01-25T18:12:43.733Z,124.50
2023-01-25T18:15:12.446Z,135.60
2023-01-25T18:17:40.747Z,187.50
2023-01-25T18:20:10.732Z,174.90
2023-01-25T18:22:39.067Z,151.10
2023-01-25T18:25:28.428Z,55.80
2023-01-25T18:27:56.731Z,45.90
2023-01-25T18:30:44.430Z,42.90
2023-01-25T18:33:12.562Z,53.10
2023-01-25T18:35:43.394Z,90.90
2023-01-25T18:38:13.077Z,67.30
2023-01-25T18:40:43.827Z,92.90
2023-01-25T18:43:13.797Z,50.70
2023-01-25T18:45:42.834Z,47.20
2023-01-25T18:48:13.564Z,48.40
2023-01-25T18:50:42.752Z,45.90
2023-01-25T18:53:11.105Z,48.30
2023-01-25T18:55:39.468Z,45.40
2023-01-25T18:58:07.737Z,43.40
2023-01-25T19:00:36.343Z,38.20
2023-01-25T19:03:04.618Z,39.60
2023-01-25T19:05:32.882Z,41.80
2023-01-25T19:08:00.989Z,44.00
2023-01-25T19:10:29.053Z,43.00
2023-01-25T19:12:57.501Z,42.90
2023-01-25T19:15:25.678Z,43.70
2023-01-25T19:17:53.732Z,42.20
2023-01-25T19:20:22.093Z,48.80
2023-01-25T19:22:53.859Z,42.20
2023-01-25T19:25:23.003Z,43.30
2023-01-25T19:27:51.613Z,42.90
2023-01-25T19:30:19.915Z,41.00
2023-01-25T19:32:48.307Z,42.50
2023-01-25T19:35:16.401Z,44.70
2023-01-25T19:37:44.639Z,41.80
2023-01-25T19:40:13.643Z,41.30
2023-01-25T19:42:41.885Z,42.00
2023-01-25T19:45:10.814Z,43.50
2023-01-25T19:47:39.272Z,47.00
2023-01-25T19:50:08.249Z,47.20
2023-01-25T19:52:36.581Z,46.40
2023-01-25T19:55:05.436Z,45.10
2023-01-25T19:57:38.331Z,42.00
2023-01-25T20:00:07.168Z,46.70
2023-01-25T20:02:36.761Z,42.90
2023-01-25T20:05:05.254Z,41.90
2023-01-25T20:07:33.895Z,41.60
2023-01-25T20:10:02.105Z,45.00
2023-01-25T20:12:30.212Z,39.10
2023-01-25T20:14:58.700Z,46.90
2023-01-25T20:17:26.855Z,43.80
2023-01-25T20:19:54.886Z,50.90
2023-01-25T20:22:23.312Z,44.80
2023-01-25T20:24:51.430Z,40.90
2023-01-25T20:27:19.620Z,45.00
2023-01-25T20:29:49.291Z,42.30
2023-01-25T20:32:31.982Z,45.30
2023-01-25T20:35:03.734Z,43.40
2023-01-25T20:37:32.173Z,46.90
2023-01-25T20:40:00.248Z,47.20
2023-01-25T20:42:28.438Z,45.00
2023-01-25T20:44:57.008Z,47.50
2023-01-25T20:47:25.130Z,44.90
2023-01-25T20:49:53.261Z,49.80
2023-01-25T20:52:21.689Z,49.90
2023-01-25T20:54:49.966Z,50.50
2023-01-25T20:57:18.115Z,56.00
2023-01-25T20:59:46.458Z,51.00
2023-01-25T21:02:14.801Z,55.20
2023-01-25T21:04:43.198Z,47.50
2023-01-25T21:07:11.642Z,49.70
2023-01-25T21:09:42.094Z,53.70
2023-01-25T21:12:11.300Z,57.00
2023-01-25T21:14:39.445Z,54.20
2023-01-25T21:17:10.311Z,51.10
2023-01-25T21:19:38.492Z,51.10
2023-01-25T21:22:06.720Z,52.40
2023-01-25T21:24:35.264Z,49.10
2023-01-25T21:27:03.453Z,50.80
2023-01-25T21:29:31.776Z,50.20
2023-01-25T21:32:00.125Z,50.60
2023-01-25T21:34:31.023Z,42.20
2023-01-25T21:36:59.738Z,41.60
2023-01-25T21:39:27.848Z,45.80
2023-01-25T21:41:55.962Z,49.60
2023-01-25T21:44:43.253Z,47.90
2023-01-25T21:50:18.073Z,41.20
2023-01-25T21:52:46.102Z,45.90
2023-01-25T21:55:14.496Z,43.60
2023-01-25T21:57:47.254Z,48.10
2023-01-25T22:00:18.784Z,48.10
2023-01-25T22:02:46.914Z,43.50
2023-01-25T22:05:15.071Z,43.00
2023-01-25T22:07:43.312Z,43.40
2023-01-25T22:10:11.722Z,47.60
2023-01-25T22:12:40.276Z,45.00
2023-01-25T22:15:08.552Z,41.30
2023-01-25T22:17:36.819Z,41.60
2023-01-25T22:20:05.211Z,45.10
2023-01-25T22:22:33.258Z,41.30
2023-01-25T22:25:01.297Z,44.60
2023-01-25T22:27:37.570Z,44.50
2023-01-25T22:30:06.676Z,41.90
2023-01-25T22:32:34.995Z,40.40
2023-01-25T22:35:03.344Z,42.20
2023-01-25T22:37:34.846Z,43.90
2023-01-25T22:40:02.956Z,44.50
2023-01-25T22:42:31.037Z,47.40
2023-01-25T22:44:59.063Z,49.10
2023-01-25T22:47:27.106Z,43.80
2023-01-25T22:49:55.148Z,46.30
2023-01-25T22:52:23.538Z,47.70
2023-01-25T22:54:51.948Z,46.30
2023-01-25T22:57:20.048Z,46.10
2023-01-25T22:59:48.218Z,49.00
2023-01-25T23:02:16.297Z,49.10
2023-01-25T23:04:44.380Z,45.90
2023-01-25T23:07:12.984Z,45.00
2023-01-25T23:09:41.117Z,42.20
2023-01-25T23:12:09.195Z,43.60
2023-01-25T23:14:52.967Z,47.80
2023-01-25T23:17:42.469Z,43.50
2023-01-25T23:20:12.694Z,45.70
2023-01-25T23:22:41.691Z,44.30
2023-01-25T23:25:11.526Z,44.40
2023-01-25T23:27:39.687Z,45.50
2023-01-25T23:30:10.258Z,41.40
2023-01-25T23:32:38.866Z,46.00
2023-01-25T23:35:07.427Z,49.10
2023-01-25T23:37:35.473Z,45.70
2023-01-25T23:40:04.102Z,41.00
2023-01-25T23:42:32.485Z,44.20
2023-01-25T23:45:00.551Z,44.90
2023-01-25T23:47:31.263Z,46.80
2023-01-25T23:49:59.606Z,45.30
2023-01-25T23:52:27.774Z,42.90
2023-01-25T23:54:55.849Z,47.00
2023-01-25T23:57:24.344Z,40.20
2023-01-25T23:59:52.746Z,39.30
